Time;durP1;ratioP1;P1;durP2;ratioP2;P2;SDS_P1;SDS_P2;PMS_P1;PMS_P2;Temp;Humidity;BMP_temperature;BMP_pressure;BME280_temperature;BME280_humidity;BME280_pressure;Samples;Min_cycle;Max_cycle;Signal;HPM_P1;HPM_P2
2023/05/30 00:02:04;;;;;;;5.15;1.75;;;;;;;21.73;37.29;102576.38;5003977;28;20041;-68
2023/05/30 00:04:30;;;;;;;7.30;1.98;;;;;;;21.70;37.62;102566.78;5013931;28;20025;-69
2023/05/30 00:06:55;;;;;;;8.10;1.75;;;;;;;21.71;37.36;102572.94;5012425;28;20536;-69
2023/05/30 00:09:20;;;;;;;4.35;1.67;;;;;;;21.72;37.34;102574.66;5013210;28;20471;-68
2023/05/30 00:11:46;;;;;;;7.18;1.80;;;;;;;21.68;37.50;102581.97;5001446;28;20514;-68
2023/05/30 00:14:11;;;;;;;5.10;1.63;;;;;;;21.67;37.43;102585.59;5017164;28;20138;-69
2023/05/30 00:16:38;;;;;;;4.80;1.70;;;;;;;21.69;37.45;102582.81;5005502;28;20057;-68
2023/05/30 00:19:04;;;;;;;6.45;1.73;;;;;;;21.69;37.73;102585.47;5020937;28;20065;-69
2023/05/30 00:21:31;;;;;;;8.80;1.80;;;;;;;21.64;37.41;102577.84;5012268;28;20113;-69
2023/05/30 00:23:56;;;;;;;7.03;1.70;;;;;;;21.66;37.49;102581.22;5006934;28;20037;-69
2023/05/30 00:26:22;;;;;;;4.18;1.60;;;;;;;21.62;37.62;102574.44;5003815;28;20041;-70
2023/05/30 00:28:47;;;;;;;6.65;1.80;;;;;;;21.61;37.31;102567.44;5004199;28;20041;-69
2023/05/30 00:31:12;;;;;;;8.43;2.17;;;;;;;21.65;37.50;102576.03;5000921;28;20065;-69
2023/05/30 00:33:37;;;;;;;6.20;2.15;;;;;;;21.61;37.61;102582.50;5004465;28;20029;-69
2023/05/30 00:36:03;;;;;;;7.27;2.07;;;;;;;21.63;37.58;102581.44;5005991;28;20222;-68
2023/05/30 00:38:28;;;;;;;6.95;2.05;;;;;;;21.64;37.63;102580.47;5013315;28;20301;-69
2023/05/30 00:40:53;;;;;;;4.50;1.53;;;;;;;21.62;37.71;102587.72;5009679;28;20105;-69
2023/05/30 00:43:19;;;;;;;6.70;1.80;;;;;;;21.63;37.58;102591.22;5001367;28;20643;-69
2023/05/30 00:45:49;;;;;;;6.75;1.80;;;;;;;21.61;37.39;102590.47;5013564;28;20341;-69
2023/05/30 00:48:14;;;;;;;5.20;1.50;;;;;;;21.59;37.59;102587.91;5019434;28;20065;-68
2023/05/30 00:50:40;;;;;;;5.82;1.60;;;;;;;21.53;37.76;102586.53;5017968;28;20478;-68
2023/05/30 00:53:06;;;;;;;7.07;2.03;;;;;;;21.59;37.77;102602.97;5015072;28;20037;-68
2023/05/30 00:55:32;;;;;;;7.07;1.90;;;;;;;21.59;37.83;102595.88;5014082;28;20041;-69
2023/05/30 00:57:57;;;;;;;6.68;1.77;;;;;;;21.56;37.61;102596.94;5011527;28;20042;-68
2023/05/30 01:00:26;;;;;;;6.35;1.88;;;;;;;21.56;37.73;102601.41;5008111;28;20037;-69
2023/05/30 01:02:51;;;;;;;6.88;2.42;;;;;;;21.54;37.55;102593.53;5024080;28;20030;-69
2023/05/30 01:05:17;;;;;;;5.70;1.67;;;;;;;21.55;37.63;102591.72;5020682;28;20038;-70
2023/05/30 01:07:44;;;;;;;7.78;1.80;;;;;;;21.58;37.55;102606.59;5020961;28;20168;-68
2023/05/30 01:10:15;;;;;;;5.45;1.67;;;;;;;21.52;37.61;102595.47;5018927;28;20025;-68
2023/05/30 01:12:47;;;;;;;6.93;1.50;;;;;;;21.46;37.61;102584.34;5011263;28;20033;-69
2023/05/30 01:15:32;;;;;;;6.07;2.13;;;;;;;21.55;37.81;102602.34;5004361;28;20038;-69
2023/05/30 01:18:19;;;;;;;5.07;1.63;;;;;;;21.55;37.56;102602.34;5017099;28;20049;-70
2023/05/30 01:20:48;;;;;;;6.15;1.50;;;;;;;21.51;37.41;102596.41;5022115;28;20056;-69
2023/05/30 01:23:32;;;;;;;5.35;1.70;;;;;;;21.53;37.84;102602.44;5011044;28;20037;-69
2023/05/30 01:26:33;;;;;;;5.82;1.55;;;;;;;21.50;37.62;102586.72;5018570;28;20052;-69
2023/05/30 01:29:02;;;;;;;6.93;1.83;;;;;;;21.51;37.38;102592.91;5014236;28;20201;-70
2023/05/30 01:31:28;;;;;;;7.10;2.13;;;;;;;21.52;37.71;102595.47;5013243;28;20038;-69
2023/05/30 01:33:54;;;;;;;6.90;1.88;;;;;;;21.50;37.55;102592.03;5009943;28;20052;-69
2023/05/30 01:36:20;;;;;;;5.57;1.52;;;;;;;21.50;37.51;102597.34;5008285;28;20445;-69
2023/05/30 01:38:45;;;;;;;8.23;1.83;;;;;;;21.51;37.50;102600.88;5015112;28;20030;-67
2023/05/30 01:41:20;;;;;;;7.43;2.23;;;;;;;21.48;37.66;102598.38;5015355;28;20037;-68
2023/05/30 01:44:05;;;;;;;6.40;1.90;;;;;;;21.46;37.53;102603.81;5015499;28;20279;-68
2023/05/30 01:46:33;;;;;;;6.47;2.08;;;;;;;21.48;37.78;102601.03;5016809;28;20048;-68
2023/05/30 01:49:08;;;;;;;6.60;1.52;;;;;;;21.47;37.71;102597.53;5016643;28;20021;-70
2023/05/30 01:51:44;;;;;;;7.20;1.90;;;;;;;21.43;37.60;102605.78;5010712;28;20039;-68
2023/05/30 01:54:13;;;;;;;7.28;2.33;;;;;;;21.45;37.60;102604.75;5019206;28;20045;-68
2023/05/30 01:56:39;;;;;;;5.60;1.58;;;;;;;21.46;37.69;102609.09;5015103;28;21120;-70
2023/05/30 01:59:07;;;;;;;6.45;1.73;;;;;;;21.43;37.50;102611.09;5014737;28;21081;-69
2023/05/30 02:01:33;;;;;;;5.75;1.50;;;;;;;21.44;37.42;102613.63;5012800;28;20043;-69
2023/05/30 02:03:59;;;;;;;8.48;2.05;;;;;;;21.43;37.53;102608.44;5007311;28;20030;-68
2023/05/30 02:06:24;;;;;;;6.10;1.55;;;;;;;21.41;37.63;102608.53;5015346;28;20104;-68
2023/05/30 02:08:50;;;;;;;5.18;1.48;;;;;;;21.40;37.55;102611.31;5013062;28;20029;-68
2023/05/30 02:11:15;;;;;;;5.07;1.48;;;;;;;21.38;37.79;102620.22;5011335;28;20474;-68
2023/05/30 02:13:41;;;;;;;5.85;1.98;;;;;;;21.42;37.78;102628.81;5012337;28;20040;-68
2023/05/30 02:16:07;;;;;;;6.95;1.48;;;;;;;21.39;37.76;102629.03;5012029;28;20072;-67
2023/05/30 02:18:34;;;;;;;8.38;2.00;;;;;;;21.41;37.62;102631.56;5011612;28;20474;-68
2023/05/30 02:20:59;;;;;;;6.57;2.08;;;;;;;21.42;37.80;102633.28;5010622;28;20037;-68
2023/05/30 02:23:24;;;;;;;6.88;1.75;;;;;;;21.41;37.66;102631.56;5011281;28;20041;-68
2023/05/30 02:25:50;;;;;;;7.15;1.80;;;;;;;21.39;37.57;102626.38;5016750;28;20527;-69
2023/05/30 02:28:16;;;;;;;5.65;1.80;;;;;;;21.38;37.51;102628.19;5010293;28;20031;-69
2023/05/30 02:30:41;;;;;;;6.57;2.35;;;;;;;21.38;37.63;102628.19;5006305;28;21455;-69
2023/05/30 02:33:06;;;;;;;6.83;2.67;;;;;;;21.35;37.58;102612.47;5014211;28;20033;-68
2023/05/30 02:35:31;;;;;;;7.10;2.17;;;;;;;21.34;37.58;102624.03;5006631;28;20267;-68
2023/05/30 02:37:57;;;;;;;7.53;2.20;;;;;;;21.37;37.49;102621.16;5014286;28;20675;-69
2023/05/30 02:40:22;;;;;;;9.43;2.17;;;;;;;21.37;37.65;102622.97;5010831;28;20029;-69
2023/05/30 02:42:47;;;;;;;6.50;1.60;;;;;;;21.37;37.47;102621.16;5015264;28;20812;-69
2023/05/30 02:45:12;;;;;;;7.60;1.88;;;;;;;21.37;37.64;102625.63;5012559;28;20103;-68
2023/05/30 02:47:39;;;;;;;6.78;1.75;;;;;;;21.34;37.51;102620.53;5013911;28;20361;-69
2023/05/30 02:50:05;;;;;;;6.95;1.95;;;;;;;21.34;37.39;102620.53;5016315;28;20026;-70
2023/05/30 02:52:30;;;;;;;6.93;1.77;;;;;;;21.32;37.63;102615.31;5017305;28;20050;-69
2023/05/30 02:54:56;;;;;;;6.07;2.03;;;;;;;21.33;37.42;102619.69;5016431;28;20362;-68
2023/05/30 02:57:21;;;;;;;8.00;2.13;;;;;;;21.32;37.44;102609.19;5013248;28;20116;-69
2023/05/30 02:59:47;;;;;;;9.05;2.05;;;;;;;21.34;37.49;102610.75;5013081;28;20241;-69
2023/05/30 03:02:12;;;;;;;6.70;1.77;;;;;;;21.30;37.55;102611.06;5013757;28;20033;-68
2023/05/30 03:04:38;;;;;;;6.10;1.58;;;;;;;21.34;37.63;102604.63;5009020;28;20047;-68
2023/05/30 03:07:03;;;;;;;7.00;1.77;;;;;;;21.29;37.61;102596.13;5011994;28;20033;-69
2023/05/30 03:09:28;;;;;;;7.53;2.10;;;;;;;21.29;37.68;102598.78;5011416;28;20092;-69
2023/05/30 03:11:54;;;;;;;4.65;1.70;;;;;;;21.30;37.73;102613.72;5011377;28;20481;-70
2023/05/30 03:14:20;;;;;;;7.85;2.45;;;;;;;21.27;37.58;102614.78;5015158;28;20375;-69
2023/05/30 03:16:45;;;;;;;5.43;1.73;;;;;;;21.28;37.41;102624.44;5010170;28;20053;-69
2023/05/30 03:19:10;;;;;;;7.22;1.80;;;;;;;21.28;37.61;102626.25;5013814;28;20033;-69
2023/05/30 03:21:37;;;;;;;7.72;1.85;;;;;;;21.30;37.72;102632.28;5006896;28;20037;-70
2023/05/30 03:24:03;;;;;;;7.22;2.08;;;;;;;21.27;37.60;102629.84;5009403;28;20052;-69
2023/05/30 03:26:29;;;;;;;8.00;1.85;;;;;;;21.27;37.70;102637.78;5010911;28;20033;-69
2023/05/30 03:28:54;;;;;;;8.00;2.00;;;;;;;21.28;37.58;102631.53;5010100;28;20076;-69
2023/05/30 03:31:20;;;;;;;6.85;1.98;;;;;;;21.26;37.64;102625.50;5002069;28;20524;-69
2023/05/30 03:33:45;;;;;;;6.75;2.13;;;;;;;21.24;37.50;102633.56;5002555;28;20037;-69
2023/05/30 03:36:11;;;;;;;6.55;2.00;;;;;;;21.26;37.57;102639.59;5010690;28;20041;-69
2023/05/30 03:38:37;;;;;;;5.80;2.08;;;;;;;21.23;37.59;102639.81;5005351;28;20042;-69
2023/05/30 03:41:03;;;;;;;7.30;2.20;;;;;;;21.23;37.57;102644.25;5011565;28;20360;-69
2023/05/30 03:43:28;;;;;;;8.07;1.95;;;;;;;21.24;37.55;102654.78;5015809;28;20052;-69
2023/05/30 03:45:54;;;;;;;6.95;2.10;;;;;;;21.24;37.48;102654.78;5006391;28;20390;-68
2023/05/30 03:48:19;;;;;;;8.50;2.13;;;;;;;21.25;37.66;102660.91;5004088;28;20030;-68
2023/05/30 03:50:44;;;;;;;8.83;2.07;;;;;;;21.23;37.59;102661.03;5001872;28;20034;-69
2023/05/30 03:53:09;;;;;;;9.20;1.77;;;;;;;21.25;37.69;102661.75;5018303;28;20258;-68
2023/05/30 03:55:35;;;;;;;8.47;2.10;;;;;;;21.25;37.48;102663.56;5009892;28;20067;-69
2023/05/30 03:58:00;;;;;;;5.75;1.77;;;;;;;21.23;37.68;102657.53;5012572;28;20259;-68
2023/05/30 04:00:25;;;;;;;7.57;2.23;;;;;;;21.24;37.22;102661.84;5006685;28;20037;-69
2023/05/30 04:02:51;;;;;;;6.25;1.85;;;;;;;21.20;37.66;102663.88;5020164;28;20267;-69
2023/05/30 04:05:17;;;;;;;7.43;1.90;;;;;;;21.21;37.65;102662.94;5009817;28;20029;-68
2023/05/30 04:07:43;;;;;;;6.18;2.03;;;;;;;21.22;37.41;102663.78;5006790;28;20037;-70
2023/05/30 04:10:08;;;;;;;6.75;2.00;;;;;;;21.15;37.72;102661.53;5001768;28;20038;-69
2023/05/30 04:12:34;;;;;;;7.43;1.70;;;;;;;21.19;37.47;102662.19;5001410;28;20565;-68
2023/05/30 04:14:59;;;;;;;7.53;1.95;;;;;;;21.20;37.75;102669.16;5013025;28;20386;-68
2023/05/30 04:17:24;;;;;;;6.20;1.77;;;;;;;21.17;37.85;102657.00;5018017;28;20398;-68
2023/05/30 04:19:50;;;;;;;7.10;2.03;;;;;;;21.20;37.62;102667.38;5004191;28;20030;-69
2023/05/30 04:22:15;;;;;;;7.03;2.08;;;;;;;21.18;37.84;102663.97;5001870;28;20041;-69
2023/05/30 04:24:41;;;;;;;8.25;2.03;;;;;;;21.19;37.60;102670.97;5017027;28;20042;-70
2023/05/30 04:27:06;;;;;;;6.53;1.88;;;;;;;21.18;37.64;102666.63;5023206;28;20122;-69
2023/05/30 04:29:32;;;;;;;7.97;2.20;;;;;;;21.17;37.67;102661.41;5016485;28;20037;-69
2023/05/30 04:31:57;;;;;;;6.25;1.70;;;;;;;21.17;37.54;102654.34;5015042;28;20738;-68
2023/05/30 04:34:24;;;;;;;6.53;1.98;;;;;;;21.19;37.92;102659.53;5010732;28;20047;-69
2023/05/30 04:36:51;;;;;;;7.45;2.28;;;;;;;21.18;37.80;102658.66;5020068;28;20059;-69
2023/05/30 04:39:17;;;;;;;6.53;2.00;;;;;;;21.17;37.66;102659.63;5022768;28;20099;-68
2023/05/30 04:41:42;;;;;;;6.40;2.08;;;;;;;21.15;37.45;102658.88;5017602;28;20568;-70
2023/05/30 04:44:08;;;;;;;5.60;1.70;;;;;;;21.16;37.74;102665.88;5010123;28;20506;-68
2023/05/30 04:46:33;;;;;;;6.90;1.88;;;;;;;21.14;37.75;102661.63;5016131;28;20281;-69
2023/05/30 04:49:00;;;;;;;6.70;2.03;;;;;;;21.15;37.94;102656.22;5015978;28;20033;-69
2023/05/30 04:51:26;;;;;;;6.05;1.92;;;;;;;21.16;37.91;102665.88;5007817;28;20469;-68
2023/05/30 04:53:52;;;;;;;5.50;2.00;;;;;;;21.16;37.82;102665.03;5023564;28;20041;-69
2023/05/30 04:56:19;;;;;;;5.72;1.73;;;;;;;21.12;37.95;102653.75;5016109;28;20044;-70
2023/05/30 04:58:48;;;;;;;6.05;2.22;;;;;;;21.14;38.06;102657.19;5015049;28;20087;-68
2023/05/30 05:01:14;;;;;;;9.38;2.30;;;;;;;21.13;37.79;102650.16;5016773;28;20038;-69
2023/05/30 05:03:40;;;;;;;6.93;2.28;;;;;;;21.15;37.92;102669.47;5015223;28;20052;-70
2023/05/30 05:06:07;;;;;;;7.50;2.25;;;;;;;21.14;38.09;102657.19;5016846;28;20038;-70
2023/05/30 05:08:33;;;;;;;6.05;2.08;;;;;;;21.14;38.02;102661.63;5015270;28;20585;-68
2023/05/30 05:11:00;;;;;;;6.30;2.10;;;;;;;21.12;38.17;102663.53;5023803;28;20030;-69
2023/05/30 05:13:25;;;;;;;6.03;1.90;;;;;;;21.12;38.26;102658.22;5017348;28;20204;-68
2023/05/30 05:15:51;;;;;;;7.22;2.10;;;;;;;21.13;38.25;102665.25;5004368;28;20492;-68
2023/05/30 05:18:16;;;;;;;6.68;1.90;;;;;;;21.13;38.19;102660.78;5014334;28;20033;-68
2023/05/30 05:20:41;;;;;;;6.65;2.08;;;;;;;21.15;38.14;102664.16;5014066;28;20061;-68
2023/05/30 05:23:07;;;;;;;8.40;2.00;;;;;;;21.12;37.99;102660.88;5008426;28;20026;-69
2023/05/30 05:25:32;;;;;;;6.78;2.47;;;;;;;21.15;38.08;102663.31;5019039;28;20776;-71
2023/05/30 05:27:57;;;;;;;7.25;2.13;;;;;;;21.14;38.01;102661.63;5020570;28;20033;-69
2023/05/30 05:30:23;;;;;;;5.80;1.88;;;;;;;21.14;38.15;102661.63;5012116;28;20389;-69
2023/05/30 05:32:48;;;;;;;5.75;2.00;;;;;;;21.14;38.25;102661.63;5022273;28;20057;-69
2023/05/30 05:35:13;;;;;;;6.30;2.10;;;;;;;21.13;38.11;102663.44;5023236;28;20124;-69
2023/05/30 05:37:38;;;;;;;7.32;2.08;;;;;;;21.10;37.78;102658.31;5014010;28;20706;-70
2023/05/30 05:40:05;;;;;;;7.00;2.35;;;;;;;21.14;38.26;102661.63;5014987;28;20036;-70
2023/05/30 05:42:33;;;;;;;6.30;2.45;;;;;;;21.13;38.13;102654.63;5023189;28;20037;-70
2023/05/30 05:44:58;;;;;;;6.53;2.20;;;;;;;21.11;38.33;102660.03;5023708;28;20037;-70
2023/05/30 05:47:24;;;;;;;8.23;2.00;;;;;;;21.13;38.20;102660.78;5009273;28;20471;-70
2023/05/30 05:49:50;;;;;;;6.93;2.30;;;;;;;21.13;38.23;102660.78;5024720;28;20277;-68
2023/05/30 05:52:15;;;;;;;6.32;2.20;;;;;;;21.12;38.01;102669.66;5022032;28;20025;-69
2023/05/30 05:54:40;;;;;;;6.88;2.28;;;;;;;21.09;38.23;102664.56;5011720;28;20045;-70
2023/05/30 05:57:06;;;;;;;7.78;2.20;;;;;;;21.11;37.94;102669.78;5009320;28;20061;-68
2023/05/30 05:59:31;;;;;;;6.03;1.85;;;;;;;21.11;37.71;102677.72;5019895;28;20340;-69
2023/05/30 06:01:56;;;;;;;7.03;2.33;;;;;;;21.10;37.94;102676.88;5016081;28;20139;-71
2023/05/30 06:04:22;;;;;;;7.63;2.33;;;;;;;21.10;38.13;102668.09;5023104;28;20285;-71
2023/05/30 06:06:47;;;;;;;6.50;2.00;;;;;;;21.10;38.51;102676.03;5021741;28;20275;-70
2023/05/30 06:09:13;;;;;;;7.47;2.00;;;;;;;21.10;38.66;102674.22;5009464;28;20375;-69
2023/05/30 06:11:39;;;;;;;8.13;2.53;;;;;;;21.11;38.80;102670.63;5009860;28;20037;-71
2023/05/30 06:14:04;;;;;;;6.40;2.10;;;;;;;21.14;38.88;102677.53;5010297;28;20034;-71
2023/05/30 06:16:29;;;;;;;9.40;2.60;;;;;;;21.11;38.66;102678.59;5015200;28;20643;-72
2023/05/30 06:18:55;;;;;;;7.93;2.20;;;;;;;21.10;38.99;102668.94;5004391;28;20034;-68
2023/05/30 06:21:20;;;;;;;7.47;2.13;;;;;;;21.08;38.96;102670.84;5011543;28;20286;-67
2023/05/30 06:23:45;;;;;;;7.20;2.30;;;;;;;21.08;39.43;102676.13;5009350;28;20093;-68
2023/05/30 06:26:10;;;;;;;7.03;1.88;;;;;;;21.12;39.59;102679.44;5014273;28;20064;-73
2023/05/30 06:28:36;;;;;;;8.10;2.40;;;;;;;21.10;39.57;102681.34;5012354;28;20042;-68
2023/05/30 06:31:01;;;;;;;8.30;2.50;;;;;;;21.13;39.52;102686.44;5008952;28;20116;-70
2023/05/30 06:33:26;;;;;;;9.60;2.35;;;;;;;21.13;39.48;102679.34;5004274;28;20040;-67
2023/05/30 06:35:52;;;;;;;8.40;2.97;;;;;;;21.16;39.57;102687.09;5003868;28;20056;-71
2023/05/30 06:38:17;;;;;;;9.30;2.13;;;;;;;21.12;39.80;102687.38;5008076;28;20466;-69
2023/05/30 06:40:42;;;;;;;8.32;2.38;;;;;;;21.07;40.02;102674.44;5012003;28;20266;-72
2023/05/30 06:43:08;;;;;;;6.15;2.35;;;;;;;21.07;39.95;102677.06;5006493;28;20462;-69
2023/05/30 06:45:33;;;;;;;7.25;2.55;;;;;;;21.13;40.01;102674.03;5010023;28;20033;-69
2023/05/30 06:48:01;;;;;;;8.55;2.35;;;;;;;21.21;39.94;102673.53;5020414;28;20693;-70
2023/05/30 06:50:26;;;;;;;9.63;2.15;;;;;;;21.23;39.68;102674.28;5004878;28;20078;-69
2023/05/30 06:52:51;;;;;;;10.25;2.00;;;;;;;21.20;40.08;102680.66;5007199;28;20074;-68
2023/05/30 06:55:17;;;;;;;7.30;2.53;;;;;;;21.16;40.19;102684.44;5016929;28;20065;-69
2023/05/30 06:57:44;;;;;;;13.70;2.55;;;;;;;21.15;40.07;102688.03;5013007;28;20029;-69
2023/05/30 07:00:10;;;;;;;7.72;2.20;;;;;;;21.08;40.16;102684.09;5006595;28;20037;-69
2023/05/30 07:02:35;;;;;;;6.30;2.05;;;;;;;21.08;40.13;102693.81;5011765;28;20026;-68
2023/05/30 07:05:00;;;;;;;6.88;2.20;;;;;;;21.10;40.09;102691.94;5014125;28;20056;-70
2023/05/30 07:07:26;;;;;;;9.00;2.67;;;;;;;21.11;40.05;102689.19;5015436;28;20382;-70
2023/05/30 07:09:51;;;;;;;10.70;2.35;;;;;;;21.14;40.17;102702.25;5009342;28;20046;-71
2023/05/30 07:12:17;;;;;;;10.05;2.60;;;;;;;21.19;40.01;102696.66;5013061;28;20549;-72
2023/05/30 07:14:42;;;;;;;10.65;2.60;;;;;;;21.22;40.01;102696.47;5011321;28;20048;-67
2023/05/30 07:17:07;;;;;;;7.80;2.42;;;;;;;21.19;40.09;102710.75;5007513;28;20096;-68
2023/05/30 07:19:32;;;;;;;8.50;2.20;;;;;;;21.18;39.69;102700.25;5011045;28;20034;-69
2023/05/30 07:21:58;;;;;;;8.95;2.67;;;;;;;21.17;39.78;102703.84;5002288;28;20088;-69
2023/05/30 07:24:23;;;;;;;6.38;2.60;;;;;;;21.13;39.77;102703.19;5003229;28;20045;-69
2023/05/30 07:26:51;;;;;;;6.03;2.35;;;;;;;21.21;39.36;102702.69;5003937;28;20042;-69
2023/05/30 07:29:17;;;;;;;7.97;2.47;;;;;;;21.27;39.50;102696.13;5005687;28;20036;-68
2023/05/30 07:31:43;;;;;;;7.35;2.45;;;;;;;21.21;39.61;102700.06;5007710;28;20041;-67
2023/05/30 07:34:08;;;;;;;6.03;2.22;;;;;;;21.19;39.25;102684.25;5011151;28;20137;-72
2023/05/30 07:36:34;;;;;;;5.43;2.17;;;;;;;21.29;39.37;102694.25;5014984;28;20100;-71
2023/05/30 07:39:00;;;;;;;7.07;2.38;;;;;;;21.36;39.13;102706.13;5016341;28;20900;-73
2023/05/30 07:41:26;;;;;;;6.38;2.47;;;;;;;21.36;39.34;102703.47;5005313;28;20037;-71
2023/05/30 07:43:51;;;;;;;6.60;2.78;;;;;;;21.33;39.23;102704.56;5010754;28;20037;-71
2023/05/30 07:46:17;;;;;;;6.70;2.40;;;;;;;21.32;39.31;102705.50;5009808;28;20030;-73
2023/05/30 07:48:42;;;;;;;5.65;2.22;;;;;;;21.28;39.38;102703.16;5010851;28;20030;-72
2023/05/30 07:51:09;;;;;;;6.50;2.40;;;;;;;21.33;39.27;102712.50;5009751;28;20060;-72
2023/05/30 07:53:34;;;;;;;7.22;2.47;;;;;;;21.30;39.05;102704.75;5014083;28;20033;-72
2023/05/30 07:55:59;;;;;;;6.03;2.20;;;;;;;21.32;39.25;102707.31;5008306;28;20364;-73
2023/05/30 07:58:24;;;;;;;6.75;2.28;;;;;;;21.28;39.32;102692.53;5006390;28;20041;-72
2023/05/30 08:00:50;;;;;;;5.38;2.60;;;;;;;21.28;39.10;102695.19;5012356;28;20123;-72
2023/05/30 08:03:15;;;;;;;7.78;2.67;;;;;;;21.29;39.06;102681.81;5021214;28;20389;-72
2023/05/30 08:05:41;;;;;;;7.32;2.35;;;;;;;21.31;38.93;102687.88;5015923;28;20046;-72
2023/05/30 08:08:07;;;;;;;6.78;2.40;;;;;;;21.32;39.06;102694.03;5010231;28;20083;-73
2023/05/30 08:10:32;;;;;;;7.88;2.13;;;;;;;21.30;38.95;102686.19;5014270;28;20037;-71
2023/05/30 08:12:57;;;;;;;7.00;2.28;;;;;;;21.32;38.96;102694.88;5013118;28;20115;-71
2023/05/30 08:15:23;;;;;;;6.27;2.47;;;;;;;21.32;39.31;102696.69;5005003;28;20041;-73
2023/05/30 08:17:49;;;;;;;8.20;2.40;;;;;;;21.33;38.90;102690.41;5009371;28;20279;-72
2023/05/30 08:20:16;;;;;;;5.88;2.33;;;;;;;21.32;39.09;102692.22;5001864;28;20156;-72
2023/05/30 08:22:41;;;;;;;8.45;2.70;;;;;;;21.30;38.95;102694.16;5004849;28;20037;-72
2023/05/30 08:25:07;;;;;;;6.82;2.55;;;;;;;21.33;38.89;102696.59;5006917;28;20045;-72
2023/05/30 08:27:34;;;;;;;5.45;2.30;;;;;;;21.29;39.07;102684.47;5007174;28;20067;-71
2023/05/30 08:29:59;;;;;;;7.80;2.45;;;;;;;21.32;38.98;102686.94;5003193;28;20030;-71
2023/05/30 08:32:26;;;;;;;6.32;2.33;;;;;;;21.32;38.76;102684.28;5001109;28;20034;-71
2023/05/30 08:34:51;;;;;;;6.68;2.40;;;;;;;21.29;38.80;102684.47;5001689;28;20548;-72
2023/05/30 08:37:18;;;;;;;6.18;2.45;;;;;;;21.30;39.02;102678.25;5006185;28;20037;-72
2023/05/30 08:39:44;;;;;;;6.05;2.50;;;;;;;21.32;39.09;102684.28;5018340;28;20089;-70
2023/05/30 08:42:12;;;;;;;8.68;2.33;;;;;;;21.30;38.80;102677.38;5004516;28;20471;-72
2023/05/30 08:44:38;;;;;;;9.32;3.10;;;;;;;21.30;38.86;102683.53;5015728;28;20141;-72
2023/05/30 08:47:06;;;;;;;5.82;2.22;;;;;;;21.28;38.91;102666.00;5007395;28;20920;-72
2023/05/30 08:49:33;;;;;;;6.40;2.50;;;;;;;21.29;38.77;102665.91;5012220;28;20029;-72
2023/05/30 08:52:02;;;;;;;5.88;2.22;;;;;;;21.31;38.88;102679.91;5016102;28;20040;-72
2023/05/30 08:54:40;;;;;;;6.78;2.53;;;;;;;21.29;38.93;102665.91;5009863;28;20168;-72
2023/05/30 08:57:12;;;;;;;6.93;3.15;;;;;;;21.29;38.59;102673.88;5005258;28;20034;-74
2023/05/30 08:59:38;;;;;;;7.28;2.63;;;;;;;21.33;38.55;102677.16;5014174;28;20053;-71
2023/05/30 09:02:05;;;;;;;9.82;2.90;;;;;;;21.30;38.83;102669.41;5008599;28;20144;-72
2023/05/30 09:04:30;;;;;;;5.38;2.50;;;;;;;21.28;38.80;102658.06;5010349;28;20125;-71
2023/05/30 09:06:57;;;;;;;5.75;2.40;;;;;;;21.30;38.85;102664.97;5004164;28;20061;-71
2023/05/30 09:09:23;;;;;;;6.47;2.78;;;;;;;21.31;38.63;102664.00;5014010;28;20053;-71
2023/05/30 09:11:51;;;;;;;5.88;2.67;;;;;;;21.32;38.83;102668.38;5012789;28;20029;-71
2023/05/30 09:14:16;;;;;;;7.95;3.20;;;;;;;21.34;38.75;102668.25;5016990;28;20033;-71
2023/05/30 09:16:41;;;;;;;6.07;2.35;;;;;;;21.24;38.65;102646.81;5016815;28;20053;-71
2023/05/30 09:19:07;;;;;;;7.25;2.33;;;;;;;21.33;38.42;102667.44;5012465;28;20401;-72
2023/05/30 09:21:33;;;;;;;5.53;2.20;;;;;;;21.28;38.77;102650.94;5012250;28;20044;-71
2023/05/30 09:24:05;;;;;;;6.00;2.53;;;;;;;21.32;38.85;102662.22;5016199;28;20030;-72
2023/05/30 09:26:32;;;;;;;4.68;2.50;;;;;;;21.29;38.72;102650.00;5014733;28;20028;-72
2023/05/30 09:29:08;;;;;;;7.88;2.72;;;;;;;21.30;38.77;102658.81;5017747;28;21000;-71
2023/05/30 09:31:35;;;;;;;6.57;3.00;;;;;;;21.31;38.89;102653.41;5013103;28;20038;-73
2023/05/30 09:34:01;;;;;;;4.85;2.38;;;;;;;21.32;38.73;102651.63;5018013;28;20032;-72
2023/05/30 09:36:28;;;;;;;5.85;2.50;;;;;;;21.33;38.64;102648.00;5016730;28;20039;-72
2023/05/30 09:38:58;;;;;;;4.55;2.53;;;;;;;21.29;38.55;102638.56;5010410;28;20117;-71
2023/05/30 09:41:28;;;;;;;6.85;2.85;;;;;;;21.34;38.77;102641.75;5011716;28;20848;-70
2023/05/30 09:43:54;;;;;;;7.97;3.08;;;;;;;21.32;38.78;102644.50;5015962;28;20033;-72
2023/05/30 09:46:27;;;;;;;5.85;3.10;;;;;;;21.31;38.50;102642.78;5013430;28;20041;-69
2023/05/30 09:48:53;;;;;;;6.97;3.10;;;;;;;21.33;38.68;102638.25;5011436;28;20088;-68
2023/05/30 09:51:21;;;;;;;6.18;2.55;;;;;;;21.35;38.54;102644.31;5014927;28;20029;-71
2023/05/30 09:54:08;;;;;;;5.15;2.28;;;;;;;21.31;38.73;102642.78;5014040;28;20030;-72
2023/05/30 09:56:35;;;;;;;5.35;2.72;;;;;;;21.35;38.56;102646.94;5016062;28;20022;-73
2023/05/30 09:59:09;;;;;;;6.72;3.03;;;;;;;21.34;38.79;102634.63;5016193;28;20088;-70
2023/05/30 10:01:36;;;;;;;5.60;2.63;;;;;;;21.35;38.58;102638.16;5012326;28;20113;-70
2023/05/30 10:04:10;;;;;;;8.07;2.75;;;;;;;21.34;38.58;102633.78;5006926;28;20404;-71
2023/05/30 10:06:40;;;;;;;8.57;3.15;;;;;;;21.35;38.69;102624.91;5019140;28;20137;-73
2023/05/30 10:09:07;;;;;;;7.60;2.85;;;;;;;21.32;38.88;102631.25;5012884;28;20048;-70
2023/05/30 10:11:32;;;;;;;6.15;2.80;;;;;;;21.33;38.96;102627.66;5020136;28;20033;-71
2023/05/30 10:13:58;;;;;;;6.80;2.53;;;;;;;21.38;38.81;102627.34;5014333;28;20361;-72
2023/05/30 10:16:25;;;;;;;7.22;2.60;;;;;;;21.37;38.63;102622.97;5013458;28;20371;-70
2023/05/30 10:18:56;;;;;;;6.78;2.80;;;;;;;21.29;38.97;102620.00;5011979;28;20029;-70
2023/05/30 10:21:22;;;;;;;6.50;2.90;;;;;;;21.29;39.11;102620.00;5009610;28;20049;-71
2023/05/30 10:23:50;;;;;;;6.90;2.95;;;;;;;21.34;38.68;102634.63;5015461;28;20489;-70
2023/05/30 10:26:18;;;;;;;6.57;2.53;;;;;;;21.33;38.81;102622.34;5014227;28;20033;-70
2023/05/30 10:28:46;;;;;;;7.10;3.00;;;;;;;21.34;38.84;102617.88;5015900;28;20037;-70
2023/05/30 10:31:12;;;;;;;7.65;3.17;;;;;;;21.33;38.78;102622.34;5012959;28;20025;-71
2023/05/30 10:33:41;;;;;;;7.65;2.83;;;;;;;21.33;38.98;102618.81;5010932;28;20040;-71
2023/05/30 10:36:06;;;;;;;7.88;2.65;;;;;;;21.33;38.96;102621.47;5007359;28;20040;-71
2023/05/30 10:38:38;;;;;;;9.68;2.70;;;;;;;21.32;39.44;102612.69;5012274;28;20546;-69
2023/05/30 10:41:16;;;;;;;6.68;2.88;;;;;;;21.29;39.40;102612.03;5010522;28;20048;-67
2023/05/30 10:43:47;;;;;;;6.30;2.65;;;;;;;21.33;39.37;102618.81;5004398;28;20045;-64
2023/05/30 10:46:18;;;;;;;8.88;3.05;;;;;;;21.30;39.20;102619.91;5001779;28;20455;-64
2023/05/30 10:48:47;;;;;;;7.40;2.58;;;;;;;21.28;39.41;102602.38;5009600;28;20037;-68
2023/05/30 10:51:13;;;;;;;7.80;2.40;;;;;;;21.27;39.22;102592.72;5017946;28;20041;-66
2023/05/30 10:53:41;;;;;;;7.43;3.13;;;;;;;21.29;39.53;102609.38;5009875;28;20363;-66
2023/05/30 10:56:34;;;;;;;5.72;2.67;;;;;;;21.25;39.55;102594.63;5008727;28;20033;-67
2023/05/30 10:59:00;;;;;;;8.55;2.78;;;;;;;21.25;39.61;102591.97;5017470;28;20543;-68
2023/05/30 11:01:33;;;;;;;7.00;2.47;;;;;;;21.25;39.67;102584.03;5018059;28;20033;-64
2023/05/30 11:04:11;;;;;;;5.50;2.58;;;;;;;21.31;39.42;102587.09;5005322;28;20068;-66
2023/05/30 11:06:46;;;;;;;7.10;2.90;;;;;;;21.33;39.41;102584.34;5014556;28;20033;-68
2023/05/30 11:09:15;;;;;;;9.43;2.85;;;;;;;21.41;39.16;102589.97;5015870;28;20044;-67
2023/05/30 11:11:43;;;;;;;7.97;2.60;;;;;;;21.45;38.99;102596.78;5011235;28;20088;-66
2023/05/30 11:14:10;;;;;;;8.43;2.90;;;;;;;21.44;38.83;102576.50;5009530;28;20030;-67
2023/05/30 11:16:54;;;;;;;7.18;2.80;;;;;;;21.42;39.11;102586.38;5007935;28;20395;-69
2023/05/30 11:19:20;;;;;;;9.00;2.53;;;;;;;21.46;38.98;102584.34;5016347;28;20033;-67
2023/05/30 11:21:55;;;;;;;6.85;2.55;;;;;;;21.45;39.49;102580.03;5011085;28;20034;-67
2023/05/30 11:24:20;;;;;;;8.88;2.50;;;;;;;21.47;39.23;102576.31;5017311;28;20033;-66